Terminal Aerodrome Forecast
Issued by NWS Tampa Bay Area, FL

Home | Current Version | Previous Version | Text Only | Print | Product List | Glossary On
Versions: 1 2 3 4 5 6 7 8 9 10 11 12 13 14
984
FTUS42 KTBW 101722
TAFFMY
TAF
KFMY 101722Z 1018/1118 06012G20KT P6SM SCT250
     FM102200 06010KT P6SM SCT040 BKN250
     FM110200 06009KT P6SM SCT030 BKN100
     FM110600 05010KT P6SM BKN025=

USA.gov is the U.S. government's official web portal to all federal, state and local government web resources and services.